YTEF/TEF METAR and TAF weather

Enter ICAO airport designator
Station Type Date Time Source
YTEF METAR 2020/06/06 20:00 UTC NOAA

YTEF 062000Z AUTO 09007KT 9999 // NCD 11/M43 Q1017


Station Type Date Time Source
YTEF Decoded METAR 2020/06/06 20:00 UTC NOAA

Station name not available
Jun 06, 2020 - 04:00 PM EDT / 2020.06.06 2000 UTC
Wind: from the E (090 degrees) at 8 MPH (7 KT):0
Visibility: greater than 7 mile(s):0
Temperature: 51 F (11 C)
Dew Point: -45 F (-43 C)
Relative Humidity: 1%
Pressure (altimeter): 30.03 in. Hg (1017 hPa)
ob: YTEF 062000Z AUTO 09007KT 9999 // NCD 11/M43 Q1017
cycle: 20

Station Type Date Time Source
YTEF TAF 2017/06/24 02:03 UTC NOAA

TAF TAF YTEF 240051Z 2402/2414 12005KT CAVOK
FM240500 33005KT 9999 -SHRA SCT060 BKN100

Example: see airport list